createdAt,value
2018-08-10T00:01:41.284Z,101173.98
2018-08-10T00:04:11.250Z,101180.99
2018-08-10T00:06:41.144Z,101179.66
2018-08-10T00:09:12.267Z,101180.55
2018-08-10T00:11:42.406Z,101184.89
2018-08-10T00:14:12.262Z,101187.53
2018-08-10T00:16:42.117Z,101188.84
2018-08-10T00:19:11.921Z,101204.55
2018-08-10T00:21:41.627Z,101211.10
2018-08-10T00:24:12.043Z,101211.11
2018-08-10T00:26:41.869Z,101215.06
2018-08-10T00:29:11.670Z,101215.93
2018-08-10T00:31:41.466Z,101218.10
2018-08-10T00:34:11.205Z,101227.71
2018-08-10T00:36:41.142Z,101227.70
2018-08-10T00:39:13.604Z,101236.46
2018-08-10T00:41:44.325Z,101232.49
2018-08-10T00:44:14.290Z,101236.02
2018-08-10T00:46:44.211Z,101246.05
2018-08-10T00:49:13.928Z,101249.55
2018-08-10T00:51:43.869Z,101254.78
2018-08-10T00:54:13.649Z,101256.97
2018-08-10T00:56:43.337Z,101264.39
2018-08-10T00:59:13.100Z,101273.09
2018-08-10T01:01:42.997Z,101273.56
2018-08-10T01:04:12.918Z,101281.88
2018-08-10T01:06:42.653Z,101280.98
2018-08-10T01:09:13.381Z,101290.64
2018-08-10T01:11:43.393Z,101293.23
2018-08-10T01:14:13.553Z,101290.17
2018-08-10T01:16:43.272Z,101298.48
2018-08-10T01:19:13.230Z,101297.62
2018-08-10T01:21:42.874Z,101302.86
2018-08-10T01:24:12.640Z,101309.40
2018-08-10T01:26:42.504Z,101306.33
2018-08-10T01:29:12.396Z,101315.07
2018-08-10T01:31:42.327Z,101325.13
2018-08-10T01:34:12.119Z,101323.38
2018-08-10T01:36:41.898Z,101316.83
2018-08-10T01:39:12.480Z,101315.06
2018-08-10T01:41:42.408Z,101326.38
2018-08-10T01:44:12.265Z,101331.58
2018-08-10T01:46:42.052Z,101333.75
2018-08-10T01:49:11.765Z,101336.38
2018-08-10T01:51:41.617Z,101341.16
2018-08-10T01:54:11.325Z,101336.77
2018-08-10T01:56:41.166Z,101338.44
2018-08-10T01:59:10.913Z,101333.16
2018-08-10T02:01:40.761Z,101335.81
2018-08-10T02:04:10.537Z,101332.25
2018-08-10T02:06:40.406Z,101340.12
2018-08-10T02:09:11.283Z,101341.87
2018-08-10T02:11:40.932Z,101341.84
2018-08-10T02:14:10.631Z,101345.77
2018-08-10T02:16:40.483Z,101347.48
2018-08-10T02:19:10.094Z,101353.16
2018-08-10T02:21:39.822Z,101348.90
2018-08-10T02:24:09.516Z,101349.80
2018-08-10T02:26:39.487Z,101344.85
2018-08-10T02:29:09.345Z,101351.34
2018-08-10T02:31:39.009Z,101357.80
2018-08-10T02:34:08.785Z,101363.06
2018-08-10T02:36:38.787Z,101364.85
2018-08-10T02:39:11.730Z,101365.66
2018-08-10T02:41:41.494Z,101373.06
2018-08-10T02:44:11.253Z,101369.27
2018-08-10T02:46:40.971Z,101374.86
2018-08-10T02:49:10.886Z,101370.91
2018-08-10T02:51:40.576Z,101379.09
2018-08-10T02:54:10.537Z,101386.50
2018-08-10T02:56:40.273Z,101387.43
2018-08-10T02:59:09.957Z,101396.94
2018-08-10T03:01:39.693Z,101398.59
2018-08-10T03:04:09.480Z,101400.37
2018-08-10T03:06:39.188Z,101401.17
2018-08-10T03:09:10.766Z,101398.53
2018-08-10T03:11:40.573Z,101403.73
2018-08-10T03:14:10.265Z,101404.13
2018-08-10T03:16:39.885Z,101408.55
2018-08-10T03:19:09.597Z,101406.37
2018-08-10T03:21:39.304Z,101404.72
2018-08-10T03:24:08.966Z,101396.94
2018-08-10T03:26:38.807Z,101401.79
2018-08-10T03:29:08.710Z,101410.39
2018-08-10T03:31:38.502Z,101410.80
2018-08-10T03:34:08.195Z,101420.82
2018-08-10T03:36:38.037Z,101419.58
2018-08-10T03:39:11.576Z,101423.41
2018-08-10T03:41:41.716Z,101425.98
2018-08-10T03:44:11.393Z,101435.20
2018-08-10T03:46:41.031Z,101433.43
2018-08-10T03:49:10.749Z,101436.55
2018-08-10T03:51:40.411Z,101436.05
2018-08-10T03:54:10.221Z,101435.14
2018-08-10T03:56:39.910Z,101443.16
2018-08-10T03:59:09.661Z,101446.98
2018-08-10T04:01:39.360Z,101441.20
2018-08-10T04:04:09.156Z,101446.40
2018-08-10T04:06:38.833Z,101447.23
2018-08-10T04:09:13.234Z,101443.31
2018-08-10T04:11:43.592Z,101450.25
2018-08-10T04:14:13.306Z,101451.55
2018-08-10T04:16:43.006Z,101461.58
2018-08-10T04:19:12.926Z,101461.10
2018-08-10T04:21:42.634Z,101457.41
2018-08-10T04:24:12.270Z,101459.98
2018-08-10T04:26:41.941Z,101462.59
2018-08-10T04:29:11.689Z,101460.85
2018-08-10T04:31:41.487Z,101465.21
2018-08-10T04:34:11.295Z,101464.37
2018-08-10T04:36:40.993Z,101464.63
2018-08-10T04:39:13.452Z,101467.24
2018-08-10T04:41:43.832Z,101471.64
2018-08-10T04:44:13.568Z,101479.99
2018-08-10T04:46:43.295Z,101478.72
2018-08-10T04:49:13.030Z,101478.25
2018-08-10T04:51:42.969Z,101478.29
2018-08-10T04:54:12.749Z,101478.40
2018-08-10T04:56:42.557Z,101487.11
2018-08-10T04:59:12.285Z,101480.17
2018-08-10T05:01:42.441Z,101477.95
2018-08-10T05:04:12.144Z,101482.42
2018-08-10T05:06:41.780Z,101484.67
2018-08-10T05:09:13.134Z,101488.72
2018-08-10T05:11:43.919Z,101491.42
2018-08-10T05:14:13.689Z,101489.65
2018-08-10T05:16:43.616Z,101492.49
2018-08-10T05:19:13.364Z,101496.72
2018-08-10T05:21:43.225Z,101500.27
2018-08-10T05:24:13.126Z,101500.23
2018-08-10T05:26:42.850Z,101509.45
2018-08-10T05:29:12.535Z,101512.11
2018-08-10T05:31:42.749Z,101512.74
2018-08-10T05:34:12.554Z,101514.15
2018-08-10T05:36:42.581Z,101513.70
2018-08-10T05:39:13.016Z,101521.61
2018-08-10T05:41:43.299Z,101520.34
2018-08-10T05:44:13.005Z,101521.67
2018-08-10T05:46:43.456Z,101519.55
2018-08-10T05:49:13.165Z,101524.83
2018-08-10T05:51:42.864Z,101521.36
2018-08-10T05:54:12.724Z,101521.77
2018-08-10T05:56:42.436Z,101520.03
2018-08-10T05:59:12.086Z,101526.53
2018-08-10T06:01:42.167Z,101529.21
2018-08-10T06:04:11.851Z,101528.39
2018-08-10T06:06:41.640Z,101529.83
2018-08-10T06:09:13.928Z,101535.52
2018-08-10T06:11:44.812Z,101532.49
2018-08-10T06:14:15.333Z,101539.95
2018-08-10T06:16:45.236Z,101535.55
2018-08-10T06:19:15.047Z,101535.13
2018-08-10T06:21:44.920Z,101540.39
2018-08-10T06:24:14.529Z,101546.09
2018-08-10T06:26:44.311Z,101543.45
2018-08-10T06:29:13.989Z,101549.09
2018-08-10T06:31:43.770Z,101553.83
2018-08-10T06:34:13.628Z,101552.51
2018-08-10T06:36:43.268Z,101551.47
2018-08-10T06:39:13.059Z,101554.06
2018-08-10T06:41:42.833Z,101552.16
2018-08-10T06:44:12.732Z,101559.31
2018-08-10T06:46:42.530Z,101560.26
2018-08-10T06:49:12.480Z,101565.31
2018-08-10T06:51:42.153Z,101565.68
2018-08-10T06:54:11.884Z,101563.65
2018-08-10T06:56:41.800Z,101562.57
2018-08-10T06:59:11.459Z,101556.22
2018-08-10T07:01:41.242Z,101551.59
2018-08-10T07:04:10.956Z,101563.48
2018-08-10T07:06:41.219Z,101555.87
2018-08-10T07:09:12.481Z,101565.27
2018-08-10T07:11:42.883Z,101559.89
2018-08-10T07:14:13.366Z,101565.26
2018-08-10T07:16:43.800Z,101554.48
2018-08-10T07:19:13.833Z,101566.52
2018-08-10T07:21:44.000Z,101565.78
2018-08-10T07:24:14.043Z,101563.13
2018-08-10T07:26:44.319Z,101571.02
2018-08-10T07:29:14.093Z,101573.11
2018-08-10T07:31:43.757Z,101572.55
2018-08-10T07:34:13.509Z,101577.33
2018-08-10T07:36:43.168Z,101578.92
2018-08-10T07:39:13.605Z,101578.25
2018-08-10T07:41:43.609Z,101574.54
2018-08-10T07:44:13.286Z,101571.25
2018-08-10T07:46:42.976Z,101575.06
2018-08-10T07:49:12.940Z,101579.11
2018-08-10T07:51:42.671Z,101584.95
2018-08-10T07:54:12.469Z,101583.24
2018-08-10T07:56:42.125Z,101585.79
2018-08-10T07:59:11.915Z,101591.83
2018-08-10T08:01:41.582Z,101582.84
2018-08-10T08:04:11.530Z,101590.33
2018-08-10T08:06:41.343Z,101596.25
2018-08-10T08:09:12.905Z,101593.55
2018-08-10T08:11:43.004Z,101598.48
2018-08-10T08:14:12.710Z,101601.49
2018-08-10T08:16:42.652Z,101601.76
2018-08-10T08:19:12.349Z,101600.39
2018-08-10T08:22:22.902Z,101600.66
2018-08-10T08:24:52.694Z,101607.04
2018-08-10T08:27:22.452Z,101598.50
2018-08-10T08:29:52.155Z,101598.55
2018-08-10T08:32:21.922Z,101607.55
2018-08-10T08:34:51.786Z,101601.73
2018-08-10T08:37:21.452Z,101605.91
2018-08-10T08:40:25.580Z,101597.77
2018-08-10T08:42:55.313Z,101594.73
2018-08-10T08:46:07.806Z,101603.14
2018-08-10T08:48:41.053Z,101601.98
2018-08-10T08:51:29.360Z,101605.48
2018-08-10T08:54:15.922Z,101604.44
2018-08-10T08:56:45.719Z,101602.02
2018-08-10T08:59:15.414Z,101609.17
2018-08-10T09:01:45.232Z,101607.04
2018-08-10T09:04:33.562Z,101610.09
2018-08-10T09:07:03.396Z,101605.74
2018-08-10T09:09:39.279Z,101617.25
2018-08-10T09:12:08.959Z,101614.47
2018-08-10T09:14:46.099Z,101615.19
2018-08-10T09:17:16.003Z,101611.98
2018-08-10T09:19:45.541Z,101610.27
2018-08-10T09:22:15.196Z,101614.55
2018-08-10T09:24:44.902Z,101605.91
2018-08-10T09:27:14.808Z,101612.52
2018-08-10T09:29:44.659Z,101616.26
2018-08-10T09:32:14.503Z,101614.52
2018-08-10T09:34:44.333Z,101605.92
2018-08-10T09:37:14.252Z,101607.90
2018-08-10T09:39:44.165Z,101609.37
2018-08-10T09:42:14.110Z,101601.59
2018-08-10T09:44:43.775Z,101597.94
2018-08-10T09:47:13.505Z,101607.86
2018-08-10T09:49:48.375Z,101605.75
2018-08-10T09:52:18.342Z,101599.89
2018-08-10T09:55:28.010Z,101611.38
2018-08-10T09:58:14.616Z,101597.45
2018-08-10T10:00:49.480Z,101600.83
2018-08-10T10:03:21.448Z,101604.28
2018-08-10T10:05:52.302Z,101612.75
2018-08-10T10:08:22.485Z,101605.19
2018-08-10T10:10:52.340Z,101608.96
2018-08-10T10:13:22.051Z,101610.28
2018-08-10T10:15:51.867Z,101611.19
2018-08-10T10:18:21.574Z,101603.05
2018-08-10T10:20:51.244Z,101602.30
2018-08-10T10:23:21.018Z,101603.97
2018-08-10T10:25:50.709Z,101610.87
2018-08-10T10:28:20.509Z,101606.51
2018-08-10T10:30:50.189Z,101593.48
2018-08-10T10:33:20.073Z,101589.20
2018-08-10T10:35:49.807Z,101594.72
2018-08-10T10:38:19.616Z,101596.52
2018-08-10T10:40:49.319Z,101601.59
2018-08-10T10:43:19.076Z,101601.73
2018-08-10T10:45:48.755Z,101592.54
2018-08-10T10:48:18.486Z,101601.02
2018-08-10T10:50:48.404Z,101596.14
2018-08-10T10:53:18.058Z,101596.08
2018-08-10T10:55:47.770Z,101607.33
2018-08-10T10:58:17.539Z,101583.29
2018-08-10T11:00:47.490Z,101581.33
2018-08-10T11:03:17.233Z,101586.88
2018-08-10T11:05:46.962Z,101575.29
2018-08-10T11:08:16.679Z,101589.08
2018-08-10T11:10:46.540Z,101584.45
2018-08-10T11:13:16.328Z,101584.98
2018-08-10T11:15:46.081Z,101574.05
2018-08-10T11:18:15.853Z,101575.77
2018-08-10T11:20:45.516Z,101571.78
2018-08-10T11:23:15.363Z,101567.64
2018-08-10T11:25:45.250Z,101568.58
2018-08-10T11:28:14.861Z,101574.73
2018-08-10T11:30:44.537Z,101573.86
2018-08-10T11:33:14.243Z,101582.89
2018-08-10T11:35:43.936Z,101579.45
2018-08-10T11:38:13.623Z,101577.23
2018-08-10T11:40:43.317Z,101581.48
2018-08-10T11:43:13.081Z,101574.11
2018-08-10T11:45:42.853Z,101576.00
2018-08-10T11:48:12.520Z,101564.66
2018-08-10T11:50:42.296Z,101571.81
2018-08-10T11:53:11.982Z,101563.95
2018-08-10T11:55:41.704Z,101569.30
2018-08-10T11:58:11.413Z,101563.09
2018-08-10T12:00:41.129Z,101560.39
2018-08-10T12:03:10.860Z,101564.50
2018-08-10T12:05:40.782Z,101558.52
2018-08-10T12:08:10.467Z,101566.66
2018-08-10T12:10:40.239Z,101575.65
2018-08-10T12:13:09.938Z,101582.70
2018-08-10T12:15:39.719Z,101567.77
2018-08-10T12:18:09.380Z,101567.72
2018-08-10T12:20:39.154Z,101559.47
2018-08-10T12:23:08.818Z,101556.43
2018-08-10T12:25:38.510Z,101551.41
2018-08-10T12:28:08.310Z,101547.56
2018-08-10T12:30:38.099Z,101546.09
2018-08-10T12:33:08.356Z,101546.84
2018-08-10T12:35:38.053Z,101550.73
2018-08-10T12:38:07.737Z,101550.53
2018-08-10T12:40:37.424Z,101556.67
2018-08-10T12:43:07.209Z,101546.81
2018-08-10T12:45:36.934Z,101544.95
2018-08-10T12:48:07.349Z,101544.03
2018-08-10T12:50:37.303Z,101544.55
2018-08-10T12:53:07.025Z,101553.94
2018-08-10T12:55:36.837Z,101536.91
2018-08-10T12:58:06.725Z,101540.09
2018-08-10T13:00:36.386Z,101539.13
2018-08-10T13:03:06.107Z,101543.75
2018-08-10T13:05:35.809Z,101537.02
2018-08-10T13:08:05.568Z,101551.02
2018-08-10T13:10:35.216Z,101545.02
2018-08-10T13:13:04.994Z,101543.45
2018-08-10T13:15:34.797Z,101543.02
2018-08-10T13:18:04.945Z,101526.23
2018-08-10T13:20:34.796Z,101537.73
2018-08-10T13:23:04.526Z,101538.78
2018-08-10T13:25:34.404Z,101546.73
2018-08-10T13:28:04.124Z,101533.70
2018-08-10T13:30:33.885Z,101534.12
2018-08-10T13:33:03.694Z,101553.94
2018-08-10T13:35:33.439Z,101534.70
2018-08-10T13:38:03.081Z,101540.27
2018-08-10T13:40:32.764Z,101535.70
2018-08-10T13:43:02.441Z,101538.13
2018-08-10T13:45:32.185Z,101539.97
2018-08-10T13:48:01.854Z,101529.94
2018-08-10T13:50:31.702Z,101517.59
2018-08-10T13:53:01.421Z,101513.45
2018-08-10T13:55:31.100Z,101516.36
2018-08-10T13:58:00.911Z,101518.72
2018-08-10T14:00:30.566Z,101514.91
2018-08-10T14:03:00.285Z,101510.47
2018-08-10T14:05:30.083Z,101511.56
2018-08-10T14:07:59.804Z,101516.78
2018-08-10T14:10:29.762Z,101509.87
2018-08-10T14:12:59.547Z,101518.80
2018-08-10T14:15:29.279Z,101513.95
2018-08-10T14:17:59.009Z,101509.05
2018-08-10T14:20:28.696Z,101507.30
2018-08-10T14:22:58.369Z,101499.25
2018-08-10T14:25:28.321Z,101502.19
2018-08-10T14:27:58.097Z,101488.02
2018-08-10T14:30:27.857Z,101493.71
2018-08-10T14:32:57.574Z,101493.81
2018-08-10T14:35:27.290Z,101483.52
2018-08-10T14:37:57.134Z,101488.87
2018-08-10T14:40:26.908Z,101483.64
2018-08-10T14:42:56.778Z,101477.16
2018-08-10T14:45:26.561Z,101483.03
2018-08-10T14:47:56.248Z,101484.23
2018-08-10T14:50:25.996Z,101481.67
2018-08-10T14:52:55.881Z,101461.08
2018-08-10T14:55:25.597Z,101476.73
2018-08-10T14:57:55.311Z,101468.31
2018-08-10T15:00:25.117Z,101470.63
2018-08-10T15:02:54.865Z,101470.05
2018-08-10T15:05:24.714Z,101477.30
2018-08-10T15:07:54.500Z,101484.09
2018-08-10T15:10:24.356Z,101471.93
2018-08-10T15:12:54.477Z,101460.77
2018-08-10T15:15:23.951Z,101456.11
2018-08-10T15:17:53.667Z,101460.08
2018-08-10T15:20:23.394Z,101462.36
2018-08-10T15:22:53.265Z,101455.63
2018-08-10T15:25:23.139Z,101456.39
2018-08-10T15:27:53.692Z,101454.40
2018-08-10T15:30:23.545Z,101450.06
2018-08-10T15:32:53.261Z,101453.92
2018-08-10T15:35:23.152Z,101447.77
2018-08-10T15:37:53.128Z,101447.66
2018-08-10T15:40:22.876Z,101442.50
2018-08-10T15:42:52.757Z,101438.47
2018-08-10T15:45:22.616Z,101441.33
2018-08-10T15:47:52.423Z,101443.22
2018-08-10T15:50:22.093Z,101438.84
2018-08-10T15:52:51.957Z,101438.13
2018-08-10T15:55:21.860Z,101440.70
2018-08-10T15:57:51.645Z,101441.64
2018-08-10T16:00:23.171Z,101443.11
2018-08-10T16:02:53.097Z,101437.30
2018-08-10T16:05:22.959Z,101430.91
2018-08-10T16:07:52.850Z,101438.66
2018-08-10T16:10:22.671Z,101427.49
2018-08-10T16:12:52.456Z,101430.55
2018-08-10T16:15:22.187Z,101431.50
2018-08-10T16:17:51.946Z,101426.58
2018-08-10T16:20:22.975Z,101426.80
2018-08-10T16:22:52.897Z,101425.70
2018-08-10T16:25:22.632Z,101433.58
2018-08-10T16:27:52.482Z,101422.18
2018-08-10T16:30:47.845Z,101430.91
2018-08-10T16:33:17.501Z,101431.39
2018-08-10T16:35:47.300Z,101424.04
2018-08-10T16:38:17.032Z,101426.97
2018-08-10T16:40:46.931Z,101427.88
2018-08-10T16:43:16.602Z,101423.11
2018-08-10T16:45:46.269Z,101418.60
2018-08-10T16:48:15.981Z,101424.75
2018-08-10T16:50:45.787Z,101426.06
2018-08-10T16:53:15.469Z,101421.84
2018-08-10T16:55:45.249Z,101427.33
2018-08-10T16:58:14.960Z,101423.20
2018-08-10T17:00:44.853Z,101412.12
2018-08-10T17:03:14.670Z,101418.52
2018-08-10T17:05:44.348Z,101418.21
2018-08-10T17:08:14.120Z,101420.02
2018-08-10T17:10:43.804Z,101419.92
2018-08-10T17:13:13.476Z,101425.86
2018-08-10T17:15:43.149Z,101428.14
2018-08-10T17:18:12.958Z,101426.84
2018-08-10T17:20:42.648Z,101427.14
2018-08-10T17:23:12.432Z,101421.93
2018-08-10T17:25:42.244Z,101410.07
2018-08-10T17:28:12.001Z,101405.25
2018-08-10T17:30:41.771Z,101411.78
2018-08-10T17:33:11.477Z,101408.14
2018-08-10T17:35:41.196Z,101409.52
2018-08-10T17:38:10.895Z,101402.11
2018-08-10T17:40:40.645Z,101406.23
2018-08-10T17:43:10.400Z,101407.91
2018-08-10T17:45:40.152Z,101415.25
2018-08-10T17:48:09.922Z,101414.41
2018-08-10T17:50:39.695Z,101414.16
2018-08-10T17:53:09.511Z,101421.38
2018-08-10T17:55:39.315Z,101415.16
2018-08-10T17:58:09.041Z,101420.91
2018-08-10T18:00:38.815Z,101418.61
2018-08-10T18:03:08.617Z,101411.20
2018-08-10T18:05:38.517Z,101421.45
2018-08-10T18:08:08.409Z,101417.56
2018-08-10T18:10:38.208Z,101414.59
2018-08-10T18:13:08.105Z,101416.24
2018-08-10T18:15:37.836Z,101409.63
2018-08-10T18:18:07.914Z,101412.59
2018-08-10T18:20:37.645Z,101410.28
2018-08-10T18:23:08.202Z,101408.34
2018-08-10T18:25:37.929Z,101413.34
2018-08-10T18:28:07.842Z,101409.87
2018-08-10T18:30:37.648Z,101410.53
2018-08-10T18:33:08.185Z,101405.41
2018-08-10T18:35:37.900Z,101410.12
2018-08-10T18:38:07.732Z,101411.44
2018-08-10T18:40:37.557Z,101419.73
2018-08-10T18:43:07.544Z,101410.59
2018-08-10T18:45:37.317Z,101413.34
2018-08-10T18:48:07.172Z,101411.97
2018-08-10T18:50:37.011Z,101411.52
2018-08-10T18:53:06.789Z,101408.11
2018-08-10T18:55:36.574Z,101412.59
2018-08-10T18:58:06.486Z,101410.11
2018-08-10T19:00:36.198Z,101403.55
2018-08-10T19:03:06.178Z,101407.78
2018-08-10T19:05:36.005Z,101409.59
2018-08-10T19:08:05.878Z,101407.52
2018-08-10T19:10:35.681Z,101406.36
2018-08-10T19:13:05.367Z,101412.14
2018-08-10T19:15:35.074Z,101410.41
2018-08-10T19:18:05.857Z,101411.94
2018-08-10T19:20:35.861Z,101409.70
2018-08-10T19:23:05.759Z,101417.32
2018-08-10T19:25:35.530Z,101416.26
2018-08-10T19:28:05.393Z,101418.03
2018-08-10T19:30:35.152Z,101419.46
2018-08-10T19:33:04.769Z,101420.14
2018-08-10T19:35:34.629Z,101423.97
2018-08-10T19:38:04.356Z,101426.37
2018-08-10T19:40:34.083Z,101428.25
2018-08-10T19:43:03.906Z,101435.89
2018-08-10T19:45:33.663Z,101433.16
2018-08-10T19:48:03.437Z,101434.61
2018-08-10T19:50:33.137Z,101437.42
2018-08-10T19:53:03.014Z,101438.03
2018-08-10T19:55:32.982Z,101444.38
2018-08-10T19:58:02.757Z,101445.31
2018-08-10T20:00:32.422Z,101448.30
2018-08-10T20:03:02.238Z,101442.64
2018-08-10T20:05:32.099Z,101437.48
2018-08-10T20:08:01.824Z,101437.69
2018-08-10T20:10:31.589Z,101434.08
2018-08-10T20:13:01.296Z,101437.03
2018-08-10T20:15:31.192Z,101437.17
2018-08-10T20:18:00.854Z,101433.17
2018-08-10T20:20:30.670Z,101438.18
2018-08-10T20:23:00.648Z,101439.12
2018-08-10T20:25:30.379Z,101436.90
2018-08-10T20:28:00.257Z,101434.78
2018-08-10T20:30:30.108Z,101437.45
2018-08-10T20:32:59.878Z,101434.47
2018-08-10T20:35:29.805Z,101436.58
2018-08-10T20:37:59.469Z,101428.32
2018-08-10T20:40:29.569Z,101427.58
2018-08-10T20:42:59.527Z,101425.30
2018-08-10T20:45:29.474Z,101428.80
2018-08-10T20:47:59.341Z,101428.39
2018-08-10T20:50:29.155Z,101422.82
2018-08-10T20:52:59.096Z,101424.08
2018-08-10T20:55:28.928Z,101418.00
2018-08-10T20:57:58.707Z,101419.26
2018-08-10T21:00:28.462Z,101424.72
2018-08-10T21:02:58.485Z,101428.42
2018-08-10T21:05:28.188Z,101428.05
2018-08-10T21:07:57.882Z,101422.67
2018-08-10T21:10:27.650Z,101413.91
2018-08-10T21:12:57.331Z,101408.45
2018-08-10T21:15:27.167Z,101411.15
2018-08-10T21:17:56.860Z,101406.52
2018-08-10T21:20:26.611Z,101410.13
2018-08-10T21:22:56.334Z,101404.05
2018-08-10T21:25:26.141Z,101403.63
2018-08-10T21:27:55.822Z,101403.27
2018-08-10T21:30:25.574Z,101409.08
2018-08-10T21:32:55.305Z,101401.56
2018-08-10T21:35:24.989Z,101408.20
2018-08-10T21:37:54.772Z,101403.83
2018-08-10T21:40:24.491Z,101402.01
2018-08-10T21:42:54.445Z,101402.60
2018-08-10T21:45:24.158Z,101408.31
2018-08-10T21:47:53.962Z,101400.02
2018-08-10T21:50:23.733Z,101405.79
2018-08-10T21:52:53.580Z,101407.63
2018-08-10T21:55:23.281Z,101404.13
2018-08-10T21:57:53.158Z,101401.94
2018-08-10T22:00:50.087Z,101401.42
2018-08-10T22:03:22.101Z,101402.50
2018-08-10T22:05:52.062Z,101402.47
2018-08-10T22:08:22.648Z,101402.94
2018-08-10T22:10:52.466Z,101396.50
2018-08-10T22:13:27.275Z,101397.86
2018-08-10T22:16:02.446Z,101404.06
2018-08-10T22:18:37.433Z,101404.86
2018-08-10T22:21:07.189Z,101400.00
2018-08-10T22:23:36.926Z,101398.77
2018-08-10T22:26:06.758Z,101397.99
2018-08-10T22:28:36.478Z,101390.56
2018-08-10T22:31:06.332Z,101397.99
2018-08-10T22:33:36.020Z,101394.97
2018-08-10T22:36:05.802Z,101401.05
2018-08-10T22:38:35.553Z,101403.27
2018-08-10T22:41:05.594Z,101401.11
2018-08-10T22:43:35.401Z,101400.23
2018-08-10T22:46:05.397Z,101394.64
2018-08-10T22:48:35.163Z,101392.45
2018-08-10T22:51:04.957Z,101394.70
2018-08-10T22:53:34.938Z,101393.39
2018-08-10T22:56:04.978Z,101396.90
2018-08-10T22:58:34.933Z,101398.60
2018-08-10T23:01:05.062Z,101398.24
2018-08-10T23:03:34.969Z,101399.63
2018-08-10T23:06:04.783Z,101395.69
2018-08-10T23:08:34.878Z,101392.59
2018-08-10T23:11:04.564Z,101398.77
2018-08-10T23:13:34.379Z,101395.30
2018-08-10T23:16:04.129Z,101399.27
2018-08-10T23:18:33.982Z,101396.22
2018-08-10T23:21:03.905Z,101393.11
2018-08-10T23:23:33.642Z,101398.02
2018-08-10T23:26:03.553Z,101389.21
2018-08-10T23:28:33.481Z,101390.97
2018-08-10T23:31:03.451Z,101397.55
2018-08-10T23:33:33.263Z,101392.31
2018-08-10T23:36:03.245Z,101390.53
2018-08-10T23:38:33.240Z,101386.56
2018-08-10T23:41:03.076Z,101388.31
2018-08-10T23:43:32.838Z,101386.94
2018-08-10T23:46:02.776Z,101381.66
2018-08-10T23:48:32.461Z,101384.31
2018-08-10T23:51:02.307Z,101381.22
2018-08-10T23:53:32.069Z,101381.22
2018-08-10T23:56:01.852Z,101381.24
2018-08-10T23:58:31.587Z,101381.23
